Time;durP1;ratioP1;P1;durP2;ratioP2;P2;SDS_P1;SDS_P2;PMS_P1;PMS_P2;Temp;Humidity;BMP_temperature;BMP_pressure;BME280_temperature;BME280_humidity;BME280_pressure;Samples;Min_cycle;Max_cycle;Signal;HPM_P1;HPM_P2
2022/12/20 00:02:06;;;;;;;;;;;;;;;-2.38;100.00;102284.56;5555955;32;34875;-71
2022/12/20 00:05:12;;;;;;;;;;;;;;;-2.34;100.00;102293.97;5569251;32;34122;-70
2022/12/20 00:08:16;;;;;;;;;;;;;;;-2.26;100.00;102287.69;5569554;32;34780;-71
2022/12/20 00:11:22;;;;;;;;;;;;;;;-2.22;100.00;102306.62;5571660;32;35011;-71
2022/12/20 00:14:25;;;;;;;;;;;;;;;-1.97;100.00;102299.91;5571595;32;35122;-71
2022/12/20 00:17:30;;;;;;;;;;;;;;;-2.07;100.00;102310.59;5571802;32;34205;-71
2022/12/20 00:20:38;;;;;;;;;;;;;;;-2.03;100.00;102304.44;5558068;32;35447;-72
2022/12/20 00:23:42;;;;;;;;;;;;;;;-1.98;100.00;102303.41;5571705;32;34945;-71
2022/12/20 00:26:47;;;;;;;;;;;;;;;-2.01;100.00;102307.84;5557892;32;34981;-71
2022/12/20 00:29:53;;;;;;;;;;;;;;;-1.92;100.00;102311.03;5571615;32;34820;-71
2022/12/20 00:32:57;;;;;;;;;;;;;;;-1.81;100.00;102290.81;5571630;32;34464;-71
2022/12/20 00:36:05;;;;;;;;;;;;;;;-1.90;100.00;102285.00;5571655;32;34287;-72
2022/12/20 00:39:12;;;;;;;;;;;;;;;-1.84;100.00;102287.44;5557678;32;33944;-72
2022/12/20 00:42:17;;;;;;;;;;;;;;;-1.89;100.00;102292.75;5571625;32;34288;-72
2022/12/20 00:45:21;;;;;;;;;;;;;;;-1.84;100.00;102288.28;5571534;32;34953;-72
2022/12/20 00:48:27;;;;;;;;;;;;;;;-1.73;100.00;102282.78;5558067;32;34308;-71
2022/12/20 00:51:32;;;;;;;;;;;;;;;-1.63;100.00;102275.56;5557153;32;34355;-71
2022/12/20 00:54:39;;;;;;;;;;;;;;;-1.71;100.00;102270.59;5571427;32;34163;-71
2022/12/20 00:57:45;;;;;;;;;;;;;;;-1.68;100.00;102254.00;5571319;32;34460;-71
2022/12/20 01:00:54;;;;;;;;;;;;;;;-1.74;100.00;102243.81;5571768;32;34267;-72
2022/12/20 01:04:03;;;;;;;;;;;;;;;-1.74;100.00;102254.22;5571276;32;34598;-71
2022/12/20 01:07:10;;;;;;;;;;;;;;;-1.66;100.00;102253.09;5571348;32;34517;-72
2022/12/20 01:10:17;;;;;;;;;;;;;;;-1.63;100.00;102254.75;5557413;32;35209;-71
2022/12/20 01:13:23;;;;;;;;;;;;;;;-1.68;100.00;102244.47;5571269;32;34632;-71
2022/12/20 01:16:32;;;;;;;;;;;;;;;-1.65;100.00;102248.75;5571058;32;35058;-71
2022/12/20 01:19:37;;;;;;;;;;;;;;;-1.81;100.00;102246.56;5570360;32;34255;-71
2022/12/20 01:22:40;;;;;;;;;;;;;;;-1.93;100.00;102243.44;5556981;32;35127;-71
2022/12/20 01:25:51;;;;;;;;;;;;;;;-1.97;100.00;102244.44;5571153;32;34666;-72
2022/12/20 01:28:58;;;;;;;;;;;;;;;-1.88;100.00;102246.78;5570973;32;34251;-70
2022/12/20 01:32:07;;;;;;;;;;;;;;;-1.90;100.00;102238.19;5557109;32;35161;-71
2022/12/20 01:35:12;;;;;;;;;;;;;;;-1.98;100.00;102224.53;5571151;32;34704;-71
2022/12/20 01:38:19;;;;;;;;;;;;;;;-2.02;100.00;102228.97;5570813;32;34141;-70
2022/12/20 01:41:27;;;;;;;;;;;;;;;-1.83;100.00;102211.09;5571289;32;34298;-72
2022/12/20 01:44:43;;;;;;;;;;;;;;;-1.92;100.00;102201.81;5570839;32;34952;-72
2022/12/20 01:47:49;;;;;;;;;;;;;;;-1.83;100.00;102195.47;5557051;32;33563;-72
2022/12/20 01:50:57;;;;;;;;;;;;;;;-1.78;100.00;102191.84;5570959;32;34285;-72
2022/12/20 01:54:13;;;;;;;;;;;;;;;-1.78;100.00;102194.44;5557047;32;34953;-72
2022/12/20 01:57:23;;;;;;;;;;;;;;;-1.81;100.00;102185.87;5570843;32;34448;-72
2022/12/20 02:00:30;;;;;;;;;;;;;;;-1.86;100.00;102172.16;5570904;32;34333;-72
2022/12/20 02:03:37;;;;;;;;;;;;;;;-1.84;100.00;102167.78;5557211;32;34747;-72
2022/12/20 02:06:42;;;;;;;;;;;;;;;-1.85;100.00;102155.66;5570818;32;34813;-72
2022/12/20 02:09:49;;;;;;;;;;;;;;;-1.88;100.00;102160.94;5570781;32;34221;-71
2022/12/20 02:13:06;;;;;;;;;;;;;;;-1.74;100.00;102158.78;5557167;32;34577;-71
2022/12/20 02:16:16;;;;;;;;;;;;;;;-1.70;100.00;102147.41;5570819;32;34723;-70
2022/12/20 02:19:40;;;;;;;;;;;;;;;-1.82;100.00;102152.97;5570538;32;34760;-72
2022/12/20 02:22:52;;;;;;;;;;;;;;;-1.81;100.00;102157.28;5570785;32;34425;-70
2022/12/20 02:26:00;;;;;;;;;;;;;;;-1.91;100.00;102153.25;5570678;32;34924;-70
2022/12/20 02:29:10;;;;;;;;;;;;;;;-1.96;100.00;102145.56;5570703;32;34352;-70
2022/12/20 02:32:24;;;;;;;;;;;;;;;-1.96;100.00;102152.53;5570121;32;34864;-70
2022/12/20 02:35:33;;;;;;;;;;;;;;;-2.12;100.00;102156.44;5570660;32;34195;-70
2022/12/20 02:38:40;;;;;;;;;;;;;;;-2.18;100.00;102147.09;5556705;32;34360;-70
2022/12/20 02:41:53;;;;;;;;;;;;;;;-2.18;100.00;102146.25;5570434;32;34607;-69
2022/12/20 02:45:16;;;;;;;;;;;;;;;-2.21;100.00;102162.78;5570293;32;34820;-71
2022/12/20 02:48:25;;;;;;;;;;;;;;;-2.22;100.00;102151.50;5570475;32;34871;-71
2022/12/20 02:51:34;;;;;;;;;;;;;;;-2.26;100.00;102157.69;5570253;32;34557;-71
2022/12/20 02:54:40;;;;;;;;;;;;;;;-2.18;100.00;102143.66;5544195;32;34545;-71
2022/12/20 02:57:50;;;;;;;;;;;;;;;-2.08;100.00;102139.91;5570192;32;34256;-72
2022/12/20 03:01:07;;;;;;;;;;;;;;;-1.92;100.00;102123.78;5570315;32;34260;-71
2022/12/20 03:04:17;;;;;;;;;;;;;;;-1.87;100.00;102121.03;5570263;32;34759;-71
2022/12/20 03:07:23;;;;;;;;;;;;;;;-1.84;100.00;102119.19;5557127;32;34986;-71
2022/12/20 03:10:30;;;;;;;;;;;;;;;-1.60;100.00;102116.75;5555924;32;34786;-72
2022/12/20 03:13:37;;;;;;;;;;;;;;;-1.64;100.00;102108.16;5570204;32;34168;-71
2022/12/20 03:16:43;;;;;;;;;;;;;;;-1.58;100.00;102096.72;5570219;32;34922;-71
2022/12/20 03:19:50;;;;;;;;;;;;;;;-1.63;100.00;102104.66;5570442;32;34243;-71
2022/12/20 03:22:57;;;;;;;;;;;;;;;-1.66;100.00;102103.94;5569908;32;34445;-70
2022/12/20 03:26:04;;;;;;;;;;;;;;;-1.63;100.00;102106.41;5556112;32;33847;-71
2022/12/20 03:29:09;;;;;;;;;;;;;;;-1.64;100.00;102105.56;5569868;32;35014;-71
2022/12/20 03:32:18;;;;;;;;;;;;;;;-1.60;100.00;102096.78;5569995;32;34730;-72
2022/12/20 03:35:25;;;;;;;;;;;;;;;-1.70;100.00;102092.78;5569864;32;34904;-71
2022/12/20 03:38:33;;;;;;;;;;;;;;;-1.80;100.00;102106.97;5569609;32;34951;-70
2022/12/20 03:41:40;;;;;;;;;;;;;;;-1.84;100.00;102106.19;5569709;32;34899;-71
2022/12/20 03:44:48;;;;;;;;;;;;;;;-1.77;100.00;102101.66;5568587;32;34394;-71
2022/12/20 03:47:54;;;;;;;;;;;;;;;-1.92;100.00;102099.50;5569555;32;35092;-71
2022/12/20 03:51:01;;;;;;;;;;;;;;;-1.98;100.00;102099.69;5555268;32;34943;-71
2022/12/20 03:54:09;;;;;;;;;;;;;;;-2.03;100.00;102088.59;5555994;32;34183;-72
2022/12/20 03:57:17;;;;;;;;;;;;;;;-2.06;100.00;102093.88;5569588;32;34186;-71
2022/12/20 04:00:25;;;;;;;;;;;;;;;-2.13;100.00;102094.97;5556261;32;34201;-72
2022/12/20 04:03:35;;;;;;;;;;;;;;;-2.03;100.00;102086.81;5569260;32;34320;-70
2022/12/20 04:06:42;;;;;;;;;;;;;;;-2.11;100.00;102083.63;5569403;32;34297;-71
2022/12/20 04:09:55;;;;;;;;;;;;;;;-2.02;100.00;102085.09;5555248;32;35204;-70
2022/12/20 04:13:02;;;;;;;;;;;;;;;-2.08;100.00;102086.09;5569239;32;34667;-70
2022/12/20 04:16:13;;;;;;;;;;;;;;;-2.12;100.00;102070.66;5555360;32;33617;-70
2022/12/20 04:19:22;;;;;;;;;;;;;;;-2.05;100.00;102060.03;5569305;32;34317;-71
2022/12/20 04:22:30;;;;;;;;;;;;;;;-2.04;100.00;102042.69;5569040;32;34867;-71
2022/12/20 04:25:38;;;;;;;;;;;;;;;-2.03;100.00;102041.81;5569029;32;35070;-70
2022/12/20 04:28:45;;;;;;;;;;;;;;;-1.97;100.00;102047.63;5555382;32;34227;-71
2022/12/20 04:31:51;;;;;;;;;;;;;;;-1.93;100.00;102053.59;5568436;32;35099;-70
2022/12/20 04:35:00;;;;;;;;;;;;;;;-1.87;100.00;102054.25;5568783;32;34404;-71
2022/12/20 04:38:09;;;;;;;;;;;;;;;-1.85;100.00;102044.66;5568697;32;34851;-70
2022/12/20 04:41:25;;;;;;;;;;;;;;;-1.79;100.00;102051.41;5568533;32;34203;-70
2022/12/20 04:44:33;;;;;;;;;;;;;;;-1.76;100.00;102061.72;5568366;32;34367;-71
2022/12/20 04:47:43;;;;;;;;;;;;;;;-1.74;100.00;102053.87;5568536;32;34866;-71
2022/12/20 04:50:50;;;;;;;;;;;;;;;-1.78;100.00;102058.31;5568424;32;34137;-71
2022/12/20 04:53:58;;;;;;;;;;;;;;;-1.73;100.00;102055.56;5554728;32;33838;-71
2022/12/20 04:57:04;;;;;;;;;;;;;;;-1.71;100.00;102065.03;5571376;32;35040;-71
2022/12/20 05:00:14;;;;;;;;;;;;;;;-1.71;100.00;102078.06;5571377;32;34256;-71
2022/12/20 05:03:21;;;;;;;;;;;;;;;-1.79;100.00;102067.00;5571358;32;34141;-71
2022/12/20 05:06:30;;;;;;;;;;;;;;;-1.86;100.00;102068.97;5571273;32;34279;-71
2022/12/20 05:09:35;;;;;;;;;;;;;;;-1.84;100.00;102066.34;5570910;32;35024;-71
2022/12/20 05:12:44;;;;;;;;;;;;;;;-1.69;100.00;102075.41;5571328;32;34717;-72
2022/12/20 05:15:55;;;;;;;;;;;;;;;-1.83;100.00;102076.66;5557384;32;34399;-71
2022/12/20 05:19:03;;;;;;;;;;;;;;;-1.84;100.00;102081.94;5571089;32;34870;-71
2022/12/20 05:29:01;;;;;;;;;;;;;;;-1.93;100.00;102088.25;5571076;32;34860;-71
2022/12/20 05:32:08;;;;;;;;;;;;;;;-2.00;100.00;102084.16;5570952;32;34204;-71
2022/12/20 05:35:13;;;;;;;;;;;;;;;-1.98;100.00;102081.47;5571120;32;34954;-71
2022/12/20 05:38:20;;;;;;;;;;;;;;;-2.03;100.00;102084.22;5571050;32;34670;-71
2022/12/20 05:41:26;;;;;;;;;;;;;;;-2.02;100.00;102079.88;5570716;32;34218;-71
2022/12/20 05:44:35;;;;;;;;;;;;;;;-1.96;100.00;102080.56;5570737;32;34876;-71
2022/12/20 05:47:41;;;;;;;;;;;;;;;-1.99;100.00;102088.47;5556809;32;34256;-71
2022/12/20 05:50:46;;;;;;;;;;;;;;;-1.98;100.00;102081.47;5570873;32;34123;-71
2022/12/20 05:53:52;;;;;;;;;;;;;;;-1.99;100.00;102078.06;5570369;32;34967;-71
2022/12/20 05:56:56;;;;;;;;;;;;;;;-1.99;100.00;102074.59;5570718;32;34148;-71
2022/12/20 06:00:01;;;;;;;;;;;;;;;-2.07;100.00;102068.75;5570660;32;34437;-72
2022/12/20 06:03:11;;;;;;;;;;;;;;;-2.06;100.00;102057.47;5570712;32;34604;-71
2022/12/20 06:06:17;;;;;;;;;;;;;;;-2.01;100.00;102063.38;5555731;32;32761;-71
2022/12/20 06:09:23;;;;;;;;;;;;;;;-2.13;100.00;102054.19;5570708;32;34891;-71
2022/12/20 06:12:27;;;;;;;;;;;;;;;-2.15;100.00;102036.97;5570735;32;34260;-72
2022/12/20 06:15:31;;;;;;;;;;;;;;;-2.17;100.00;102037.00;5570603;32;34716;-72
2022/12/20 06:18:38;;;;;;;;;;;;;;;-2.28;100.00;102029.53;5570624;32;34623;-71
2022/12/20 06:21:44;;;;;;;;;;;;;;;-2.20;100.00;102034.50;5544051;32;34226;-72
2022/12/20 06:24:50;;;;;;;;;;;;;;;-2.22;100.00;102037.13;5570337;32;34087;-73
2022/12/20 06:27:57;;;;;;;;;;;;;;;-2.11;100.00;102036.81;5570219;32;34362;-73
2022/12/20 06:31:03;;;;;;;;;;;;;;;-2.10;100.00;102037.66;5556300;32;34669;-72
2022/12/20 06:34:07;;;;;;;;;;;;;;;-2.23;100.00;102037.19;5570002;32;34910;-72
2022/12/20 06:37:13;;;;;;;;;;;;;;;-2.29;100.00;102033.03;5570229;32;34285;-72
2022/12/20 06:40:19;;;;;;;;;;;;;;;-2.24;100.00;102028.53;5570336;32;34351;-73
2022/12/20 06:43:23;;;;;;;;;;;;;;;-2.29;100.00;102022.63;5557907;31;35040;-73
2022/12/20 06:46:28;;;;;;;;;;;;;;;-2.25;100.00;102025.97;5570273;32;34701;-72
2022/12/20 06:49:32;;;;;;;;;;;;;;;-2.17;100.00;102010.13;5570060;32;34923;-72
2022/12/20 06:52:38;;;;;;;;;;;;;;;-2.20;100.00;102019.75;5555993;32;34000;-72
2022/12/20 06:55:42;;;;;;;;;;;;;;;-2.12;100.00;102018.66;5569924;32;34156;-72
2022/12/20 06:58:46;;;;;;;;;;;;;;;-2.06;100.00;102013.28;5569628;32;34811;-73
2022/12/20 07:01:50;;;;;;;;;;;;;;;-2.05;100.00;102010.63;5555863;32;33207;-72
2022/12/20 07:04:55;;;;;;;;;;;;;;;-2.00;100.00;101993.13;5556373;32;34219;-72
2022/12/20 07:08:03;;;;;;;;;;;;;;;-2.02;100.00;102002.72;5555753;32;33770;-71
2022/12/20 07:11:06;;;;;;;;;;;;;;;-1.92;100.00;102006.75;5570146;32;34333;-71
2022/12/20 07:14:11;;;;;;;;;;;;;;;-1.88;100.00;102004.88;5569462;32;34323;-73
2022/12/20 07:17:15;;;;;;;;;;;;;;;-1.83;100.00;101995.19;5555689;32;34935;-73
2022/12/20 07:20:20;;;;;;;;;;;;;;;-1.86;100.00;101995.28;5569089;32;34815;-73
2022/12/20 07:23:26;;;;;;;;;;;;;;;-1.71;100.00;102015.59;5569574;32;34838;-72
2022/12/20 07:26:30;;;;;;;;;;;;;;;-1.56;100.00;102014.25;5569507;32;34286;-71
2022/12/20 07:29:35;;;;;;;;;;;;;;;-1.38;100.00;102011.03;5569694;32;34934;-74
2022/12/20 07:32:41;;;;;;;;;;;;;;;-1.42;100.00;102010.28;5569285;32;34897;-71
2022/12/20 07:35:46;;;;;;;;;;;;;;;-1.43;100.00;102025.94;5569647;32;34019;-71
2022/12/20 07:38:57;;;;;;;;;;;;;;;-1.39;100.00;102028.41;5555507;32;34235;-72
2022/12/20 07:42:02;;;;;;;;;;;;;;;-1.37;100.00;102012.75;5569159;32;34133;-71
2022/12/20 07:45:10;;;;;;;;;;;;;;;-1.38;100.00;102011.88;5569423;32;34842;-71
2022/12/20 07:48:14;;;;;;;;;;;;;;;-1.39;100.00;102010.19;5569388;32;34216;-72
2022/12/20 07:51:28;;;;;;;;;;;;;;;-1.38;100.00;102009.28;5569069;32;34266;-72
2022/12/20 07:54:34;;;;;;;;;;;;;;;-1.34;100.00;102013.47;5569265;32;34188;-72
2022/12/20 07:57:43;;;;;;;;;;;;;;;-1.29;100.00;102015.91;5569033;32;34228;-71
2022/12/20 08:00:48;;;;;;;;;;;;;;;-1.33;100.00;102016.94;5568927;32;34643;-71
2022/12/20 08:03:54;;;;;;;;;;;;;;;-1.27;100.00;102006.31;5568804;32;34851;-71
2022/12/20 08:06:59;;;;;;;;;;;;;;;-1.20;100.00;101996.53;5569413;32;34630;-72
2022/12/20 08:10:03;;;;;;;;;;;;;;;-1.19;100.00;101996.47;5555344;32;35118;-72
2022/12/20 08:13:08;;;;;;;;;;;;;;;-1.19;100.00;101986.06;5568924;32;34793;-71
2022/12/20 08:16:12;;;;;;;;;;;;;;;-1.17;100.00;101975.59;5568931;32;34852;-71
2022/12/20 08:19:18;;;;;;;;;;;;;;;-1.21;100.00;101980.03;5554978;32;34155;-71
2022/12/20 08:22:23;;;;;;;;;;;;;;;-1.14;100.00;101976.34;5555013;32;35236;-72
2022/12/20 08:25:26;;;;;;;;;;;;;;;-1.22;100.00;101962.75;5568697;32;34214;-71
2022/12/20 08:28:31;;;;;;;;;;;;;;;-1.17;100.00;101965.19;5568935;32;34307;-71
2022/12/20 08:31:41;;;;;;;;;;;;;;;-1.25;100.00;101972.41;5571109;32;34698;-71
2022/12/20 08:34:54;;;;;;;;;;;;;;;-1.08;100.00;101968.31;5571264;32;35064;-71
2022/12/20 08:37:59;;;;;;;;;;;;;;;-0.96;100.00;101980.88;5557908;32;34168;-71
2022/12/20 08:41:06;;;;;;;;;;;;;;;-0.98;100.00;101972.28;5571167;32;33866;-72
2022/12/20 08:44:10;;;;;;;;;;;;;;;-0.92;100.00;101969.44;5569439;32;33978;-73
2022/12/20 08:47:13;;;;;;;;;;;;;;;-0.82;100.00;101976.94;5570905;32;34633;-72
2022/12/20 08:50:16;;;;;;;;;;;;;;;-0.88;100.00;101978.87;5571113;32;34722;-71
2022/12/20 08:53:21;;;;;;;;;;;;;;;-0.84;100.00;101971.78;5570956;32;34291;-71
2022/12/20 08:56:24;;;;;;;;;;;;;;;-0.88;100.00;101960.62;5557571;32;34158;-72
2022/12/20 08:59:27;;;;;;;;;;;;;;;-0.83;100.00;101955.25;5571380;32;34345;-72
2022/12/20 09:02:31;;;;;;;;;;;;;;;-0.79;100.00;101962.03;5571061;32;34336;-72
2022/12/20 09:05:35;;;;;;;;;;;;;;;-0.68;100.00;101972.06;5570877;32;35123;-72
2022/12/20 09:08:39;;;;;;;;;;;;;;;-0.55;100.00;101971.53;5570991;32;34769;-71
2022/12/20 09:11:43;;;;;;;;;;;;;;;-0.48;100.00;101953.91;5571049;32;34738;-72
2022/12/20 09:14:48;;;;;;;;;;;;;;;-0.30;100.00;101962.78;5570953;32;34918;-72
2022/12/20 09:17:52;;;;;;;;;;;;;;;-0.27;100.00;101968.72;5570859;32;34326;-72
2022/12/20 09:21:00;;;;;;;;;;;;;;;-0.14;100.00;101972.53;5570794;32;34759;-72
2022/12/20 09:24:04;;;;;;;;;;;;;;;-0.11;100.00;101972.44;5544202;32;35069;-73
2022/12/20 09:27:08;;;;;;;;;;;;;;;-0.10;100.00;101962.84;5570661;32;34754;-74
2022/12/20 09:30:11;;;;;;;;;;;;;;;0.03;100.00;101947.53;5570697;32;35009;-73
2022/12/20 09:33:15;;;;;;;;;;;;;;;0.07;100.00;101956.94;5570718;32;33879;-73
2022/12/20 09:36:21;;;;;;;;;;;;;;;0.03;100.00;101945.78;5570483;32;34565;-72
2022/12/20 09:39:24;;;;;;;;;;;;;;;0.09;100.00;101947.28;5571300;32;34818;-71
2022/12/20 09:42:29;;;;;;;;;;;;;;;0.13;100.00;101933.22;5570465;32;34988;-71
2022/12/20 09:45:34;;;;;;;;;;;;;;;0.21;100.00;101928.50;5570410;32;34848;-72
2022/12/20 09:48:37;;;;;;;;;;;;;;;0.25;100.00;101919.62;5570710;32;34769;-71
2022/12/20 09:51:53;;;;;;;;;;;;;;;0.10;100.00;101915.09;5570636;32;34960;-71
2022/12/20 09:55:03;;;;;;;;;;;;;;;0.22;100.00;101915.41;5556712;32;33326;-71
2022/12/20 09:58:25;;;;;;;;;;;;;;;0.39;100.00;101906.84;5570131;32;35010;-72
2022/12/20 10:01:31;;;;;;;;;;;;;;;0.52;100.00;101910.66;5570505;32;34825;-71
2022/12/20 10:04:41;;;;;;;;;;;;;;;0.52;100.00;101901.97;5570120;32;34775;-71
2022/12/20 10:07:53;;;;;;;;;;;;;;;0.41;100.00;101897.19;5570314;32;34363;-71
2022/12/20 10:10:59;;;;;;;;;;;;;;;0.36;100.00;101905.22;5570158;32;34371;-71
2022/12/20 10:14:04;;;;;;;;;;;;;;;0.23;100.00;101896.22;5570282;32;34292;-71
2022/12/20 10:17:14;;;;;;;;;;;;;;;0.31;100.00;101888.91;5556743;32;35609;-73
2022/12/20 10:20:32;;;;;;;;;;;;;;;0.49;100.00;101882.03;5570473;32;34199;-72
2022/12/20 10:23:57;;;;;;;;;;;;;;;0.52;100.00;101881.06;5570316;32;34860;-71
2022/12/20 10:27:17;;;;;;;;;;;;;;;0.53;100.00;101860.13;5570167;32;34790;-72
2022/12/20 10:30:21;;;;;;;;;;;;;;;0.78;100.00;101872.91;5556258;32;34845;-73
2022/12/20 10:33:27;;;;;;;;;;;;;;;0.96;100.00;101864.25;5556443;32;33809;-73
2022/12/20 10:36:33;;;;;;;;;;;;;;;0.89;100.00;101865.44;5570340;32;34996;-71
2022/12/20 10:39:39;;;;;;;;;;;;;;;1.06;100.00;101849.84;5570168;31;34816;-72
2022/12/20 10:42:44;;;;;;;;;;;;;;;1.19;100.00;101842.28;5557724;32;35670;-73
2022/12/20 10:45:56;;;;;;;;;;;;;;;1.61;100.00;101847.22;5557567;32;34206;-72
2022/12/20 10:49:20;;;;;;;;;;;;;;;1.58;100.00;101842.12;5570145;32;34797;-72
2022/12/20 10:52:23;;;;;;;;;;;;;;;2.28;100.00;101852.53;5569985;32;34162;-72
2022/12/20 10:55:36;;;;;;;;;;;;;;;2.19;97.99;101837.28;5570070;32;34199;-72
2022/12/20 10:58:41;;;;;;;;;;;;;;;1.44;100.00;101824.50;5555805;32;34845;-73
2022/12/20 11:01:46;;;;;;;;;;;;;;;1.38;100.00;101806.50;5570052;32;34637;-72
2022/12/20 11:05:05;;;;;;;;;;;;;;;1.63;100.00;101809.59;5570024;32;34827;-73
2022/12/20 11:08:15;;;;;;;;;;;;;;;1.58;100.00;101808.12;5556068;32;34373;-71
2022/12/20 11:11:38;;;;;;;;;;;;;;;1.10;100.00;101801.75;5569717;32;34883;-72
2022/12/20 11:14:44;;;;;;;;;;;;;;;1.51;100.00;101801.50;5569783;32;34265;-72
2022/12/20 11:18:15;;;;;;;;;;;;;;;1.62;100.00;101789.59;5569845;32;34733;-73
2022/12/20 11:21:25;;;;;;;;;;;;;;;1.56;100.00;101791.66;5546789;32;34182;-72
2022/12/20 11:24:30;;;;;;;;;;;;;;;2.28;99.35;101789.69;5569378;32;35125;-72
2022/12/20 11:27:37;;;;;;;;;;;;;;;2.43;96.87;101786.25;5569568;32;34237;-71
2022/12/20 11:31:00;;;;;;;;;;;;;;;2.75;96.76;101774.06;5555485;32;35364;-73
2022/12/20 11:34:23;;;;;;;;;;;;;;;2.65;94.10;101762.41;5569562;32;34794;-71
2022/12/20 11:37:33;;;;;;;;;;;;;;;2.13;96.90;101765.16;5569638;32;34389;-72
2022/12/20 11:40:42;;;;;;;;;;;;;;;2.39;95.55;101763.78;5569047;32;34283;-72
2022/12/20 11:44:22;;;;;;;;;;;;;;;2.20;96.31;101757.84;5569040;32;35253;-72
2022/12/20 11:47:29;;;;;;;;;;;;;;;2.24;99.22;101750.66;5490267;32;34633;-71
2022/12/20 11:50:41;;;;;;;;;;;;;;;2.46;96.08;101748.59;5490384;32;34760;-72
2022/12/20 11:53:49;;;;;;;;;;;;;;;2.58;95.70;101750.53;5477700;32;36366;-72
2022/12/20 11:56:57;;;;;;;;;;;;;;;2.41;94.52;101748.84;5490388;32;34295;-72
2022/12/20 12:00:05;;;;;;;;;;;;;;;2.02;96.47;101757.03;5490230;32;34852;-72
2022/12/20 12:03:16;;;;;;;;;;;;;;;2.51;95.82;101751.81;5490082;32;34922;-73
2022/12/20 12:06:29;;;;;;;;;;;;;;;2.82;93.35;101740.47;5492176;32;34290;-72
2022/12/20 12:09:38;;;;;;;;;;;;;;;3.06;92.43;101734.72;5492528;32;34108;-72
2022/12/20 12:12:44;;;;;;;;;;;;;;;3.06;91.87;101739.13;5492434;32;34858;-72
2022/12/20 12:16:00;;;;;;;;;;;;;;;3.36;90.17;101732.13;5492739;32;34557;-72
2022/12/20 12:19:07;;;;;;;;;;;;;;;3.94;83.05;101726.06;5492458;32;34448;-73
2022/12/20 12:22:21;;;;;;;;;;;;;;;3.21;86.10;101722.50;5558833;32;34948;-73
2022/12/20 12:25:26;;;;;;;;;;;;;;;3.03;86.23;101724.41;5571421;32;34571;-72
2022/12/20 12:28:32;;;;;;;;;;;;;;;2.26;91.21;101722.63;5571432;32;34439;-74
2022/12/20 12:31:54;;;;;;;;;;;;;;;2.89;88.59;101715.63;5571406;32;34829;-72
2022/12/20 12:35:13;;;;;;;;;;;;;;;3.03;89.38;101716.56;5571257;32;34388;-72
2022/12/20 12:38:17;;;;;;;;;;;;;;;2.98;87.32;101708.09;5571309;32;34853;-72
2022/12/20 12:41:39;;;;;;;;;;;;;;;3.27;88.20;101700.34;5571150;32;34942;-72
2022/12/20 12:44:49;;;;;;;;;;;;;;;2.28;90.84;101698.03;5570919;32;34112;-72
2022/12/20 12:48:07;;;;;;;;;;;;;;;2.25;91.86;101686.91;5556867;32;33882;-72
2022/12/20 12:51:11;;;;;;;;;;;;;;;2.33;94.18;101696.03;5571354;32;34234;-72
2022/12/20 12:54:21;;;;;;;;;;;;;;;2.60;93.71;101693.69;5557301;32;33374;-72
2022/12/20 12:57:25;;;;;;;;;;;;;;;2.24;92.82;101690.44;5571206;32;34815;-73
2022/12/20 13:00:48;;;;;;;;;;;;;;;2.58;92.95;101688.50;5570963;32;35025;-72
2022/12/20 13:03:51;;;;;;;;;;;;;;;2.65;90.74;101691.66;5571228;32;34223;-72
2022/12/20 13:06:57;;;;;;;;;;;;;;;2.26;92.29;101694.69;5571001;32;34699;-72
2022/12/20 13:10:23;;;;;;;;;;;;;;;2.12;94.00;101691.94;5571081;32;34201;-72
2022/12/20 13:13:27;;;;;;;;;;;;;;;2.04;94.29;101684.50;5557052;32;35101;-72
2022/12/20 13:16:31;;;;;;;;;;;;;;;2.16;94.46;101676.00;5570968;32;34805;-72
2022/12/20 13:19:55;;;;;;;;;;;;;;;2.16;95.43;101677.78;5556700;32;33329;-71
2022/12/20 13:23:11;;;;;;;;;;;;;;;2.03;95.03;101680.19;5557229;32;34944;-71
2022/12/20 13:26:53;;;;;;;;;;;;;;;2.23;94.72;101671.25;5557394;32;34284;-72
2022/12/20 13:29:57;;;;;;;;;;;;;;;2.52;96.45;101665.28;5491865;32;34464;-72
2022/12/20 13:33:15;;;;;;;;;;;;;;;2.16;94.29;101669.91;5478709;32;34779;-72
2022/12/20 13:36:31;;;;;;;;;;;;;;;2.12;94.95;101655.31;5479106;32;35658;-72
2022/12/20 13:39:35;;;;;;;;;;;;;;;2.31;94.66;101657.75;5491061;32;34792;-71
2022/12/20 13:42:41;;;;;;;;;;;;;;;2.19;95.39;101651.41;5490466;32;34586;-72
2022/12/20 13:45:48;;;;;;;;;;;;;;;2.03;94.93;101658.41;5491540;32;34069;-72
2022/12/20 13:48:59;;;;;;;;;;;;;;;1.87;96.63;101666.22;5478712;32;35325;-73
2022/12/20 13:52:10;;;;;;;;;;;;;;;2.08;96.12;101665.06;5466004;32;33020;-72
2022/12/20 13:55:23;;;;;;;;;;;;;;;2.09;96.66;101661.53;5478618;32;34220;-70
2022/12/20 13:58:33;;;;;;;;;;;;;;;2.09;97.72;101644.97;5490765;32;34599;-72
2022/12/20 14:01:45;;;;;;;;;;;;;;;1.80;97.20;101648.31;5531414;32;34888;-72
2022/12/20 14:04:56;;;;;;;;;;;;;;;1.80;98.25;101638.69;5550379;32;34340;-72
2022/12/20 14:08:00;;;;;;;;;;;;;;;1.71;97.81;101626.94;5537628;32;33990;-72
2022/12/20 14:11:18;;;;;;;;;;;;;;;1.65;98.72;101616.78;5551098;32;34229;-71
2022/12/20 14:14:24;;;;;;;;;;;;;;;1.56;99.96;101625.12;5551114;32;34159;-72
2022/12/20 14:17:31;;;;;;;;;;;;;;;1.56;100.00;101619.91;5551129;32;34472;-72
2022/12/20 14:20:40;;;;;;;;;;;;;;;1.56;100.00;101612.06;5550829;32;34709;-72
2022/12/20 14:23:44;;;;;;;;;;;;;;;1.56;100.00;101617.28;5537220;32;34399;-72
2022/12/20 14:26:50;;;;;;;;;;;;;;;1.55;100.00;101622.63;5550403;32;34912;-72
2022/12/20 14:29:56;;;;;;;;;;;;;;;1.31;100.00;101617.69;5550908;32;34604;-72
2022/12/20 14:33:01;;;;;;;;;;;;;;;1.11;100.00;101609.22;5537362;32;34242;-71
2022/12/20 14:36:16;;;;;;;;;;;;;;;0.90;100.00;101613.72;5551007;32;34705;-71
2022/12/20 14:39:28;;;;;;;;;;;;;;;0.79;100.00;101602.94;5536745;32;34027;-72
2022/12/20 14:42:35;;;;;;;;;;;;;;;0.58;100.00;101597.00;5550477;32;34671;-71
2022/12/20 14:45:40;;;;;;;;;;;;;;;0.56;100.00;101591.03;5547964;32;34563;-71
2022/12/20 14:48:44;;;;;;;;;;;;;;;0.51;100.00;101594.78;5556232;32;34875;-71
2022/12/20 14:51:48;;;;;;;;;;;;;;;0.50;100.00;101593.94;5569864;32;34982;-72
2022/12/20 14:54:56;;;;;;;;;;;;;;;0.47;100.00;101590.63;5569846;32;34495;-72
2022/12/20 14:58:24;;;;;;;;;;;;;;;0.44;100.00;101582.00;5555596;32;33609;-72
2022/12/20 15:01:31;;;;;;;;;;;;;;;0.44;100.00;101591.59;5570019;32;34081;-71
2022/12/20 15:04:43;;;;;;;;;;;;;;;0.46;100.00;101591.53;5569799;32;34299;-71
2022/12/20 15:07:48;;;;;;;;;;;;;;;0.42;100.00;101596.06;5556167;32;32834;-71
2022/12/20 15:10:57;;;;;;;;;;;;;;;0.39;100.00;101589.22;5542899;32;32979;-71
2022/12/20 15:14:16;;;;;;;;;;;;;;;0.40;100.00;101593.53;5570008;32;34515;-71
2022/12/20 15:17:20;;;;;;;;;;;;;;;0.48;100.00;101587.97;5569567;32;34385;-72
2022/12/20 15:20:24;;;;;;;;;;;;;;;0.40;100.00;101585.69;5569715;32;34283;-73
2022/12/20 15:23:27;;;;;;;;;;;;;;;0.35;100.00;101586.84;5569274;32;34266;-73
2022/12/20 15:26:32;;;;;;;;;;;;;;;0.30;100.00;101580.97;5554955;32;33116;-72
2022/12/20 15:29:37;;;;;;;;;;;;;;;0.23;100.00;101582.22;5568991;32;34297;-73
2022/12/20 15:32:43;;;;;;;;;;;;;;;0.27;100.00;101589.81;5555109;32;34477;-71
2022/12/20 15:35:57;;;;;;;;;;;;;;;0.23;100.00;101592.66;5555687;32;34756;-71
2022/12/20 15:39:01;;;;;;;;;;;;;;;0.20;100.00;101591.00;5554496;32;34031;-72
2022/12/20 15:42:16;;;;;;;;;;;;;;;0.24;100.00;101605.59;5569233;32;34536;-72
2022/12/20 15:45:21;;;;;;;;;;;;;;;0.11;100.00;101601.88;5568780;32;34285;-72
2022/12/20 15:48:25;;;;;;;;;;;;;;;0.09;100.00;101613.31;5555109;32;34871;-72
2022/12/20 15:51:35;;;;;;;;;;;;;;;0.12;100.00;101610.56;5568855;32;34281;-71
2022/12/20 15:54:39;;;;;;;;;;;;;;;0.04;100.00;101621.38;5568125;32;34313;-71
2022/12/20 15:57:44;;;;;;;;;;;;;;;0.03;100.00;101616.22;5568424;32;34934;-71
2022/12/20 16:00:53;;;;;;;;;;;;;;;0.01;100.00;101611.06;5568533;32;34945;-72
2022/12/20 16:04:01;;;;;;;;;;;;;;;0.00;100.00;101599.75;5555039;32;33740;-72
2022/12/20 16:07:08;;;;;;;;;;;;;;;-0.02;100.00;101595.56;5568737;32;34383;-72
2022/12/20 16:10:17;;;;;;;;;;;;;;;0.02;100.00;101599.72;5568794;32;34830;-72